createdAt,value
2019-02-12T00:00:14.723Z,190.87
2019-02-12T00:02:43.038Z,193.30
2019-02-12T00:05:12.592Z,178.43
2019-02-12T00:07:41.429Z,179.47
2019-02-12T00:10:10.022Z,180.60
2019-02-12T00:12:38.308Z,167.97
2019-02-12T00:15:09.785Z,171.27
2019-02-12T00:17:38.426Z,155.67
2019-02-12T00:20:07.937Z,177.00
2019-02-12T00:22:36.221Z,187.13
2019-02-12T00:25:06.489Z,181.07
2019-02-12T00:27:34.853Z,180.07
2019-02-12T00:30:06.824Z,180.03
2019-02-12T00:32:35.406Z,175.97
2019-02-12T00:35:04.774Z,176.70
2019-02-12T00:37:33.099Z,177.80
2019-02-12T00:40:01.726Z,168.33
2019-02-12T00:42:30.043Z,164.53
2019-02-12T00:44:58.583Z,162.07
2019-02-12T00:47:29.925Z,158.07
2019-02-12T00:49:58.257Z,160.67
2019-02-12T00:52:26.900Z,162.17
2019-02-12T00:54:55.490Z,148.93
2019-02-12T00:57:24.057Z,157.43
2019-02-12T00:59:52.646Z,152.57
2019-02-12T01:02:20.936Z,150.10
2019-02-12T01:04:49.503Z,145.03
2019-02-12T01:07:17.795Z,137.73
2019-02-12T01:09:46.669Z,142.43
2019-02-12T01:12:15.226Z,151.53
2019-02-12T01:14:43.515Z,133.87
2019-02-12T01:17:12.141Z,139.13
2019-02-12T01:19:40.802Z,142.10
2019-02-12T01:22:09.391Z,131.57
2019-02-12T01:24:37.693Z,135.10
2019-02-12T01:27:06.250Z,134.70
2019-02-12T01:29:34.582Z,106.27
2019-02-12T01:32:03.215Z,125.50
2019-02-12T01:34:31.497Z,133.03
2019-02-12T01:37:00.071Z,136.03
2019-02-12T01:39:28.650Z,134.37
2019-02-12T01:41:56.954Z,135.40
2019-02-12T01:44:25.243Z,139.43
2019-02-12T01:46:53.890Z,123.77
2019-02-12T01:49:22.261Z,126.80
2019-02-12T01:51:50.860Z,123.23
2019-02-12T01:54:19.148Z,125.43
2019-02-12T01:56:47.449Z,120.13
2019-02-12T01:59:15.751Z,114.53
2019-02-12T02:01:44.370Z,118.40
2019-02-12T02:04:12.664Z,110.40
2019-02-12T02:06:40.956Z,110.07
2019-02-12T02:09:09.266Z,109.30
2019-02-12T02:11:37.555Z,102.40
2019-02-12T02:14:06.161Z,104.57
2019-02-12T02:16:34.473Z,110.37
2019-02-12T02:19:02.760Z,102.80
2019-02-12T02:21:31.418Z,101.07
2019-02-12T02:23:59.717Z,106.27
2019-02-12T02:26:28.016Z,102.27
2019-02-12T02:28:56.311Z,99.70
2019-02-12T02:31:24.619Z,103.30
2019-02-12T02:33:53.297Z,98.93
2019-02-12T02:36:21.599Z,94.33
2019-02-12T02:38:49.898Z,89.97
2019-02-12T02:41:18.185Z,87.17
2019-02-12T02:43:46.545Z,84.13
2019-02-12T02:46:15.100Z,94.70
2019-02-12T02:48:43.673Z,92.67
2019-02-12T02:51:11.953Z,85.37
2019-02-12T02:53:40.540Z,89.07
2019-02-12T02:56:08.818Z,85.03
2019-02-12T02:58:37.210Z,81.43
2019-02-12T03:01:05.497Z,84.67
2019-02-12T03:03:34.147Z,85.63
2019-02-12T03:06:02.744Z,81.57
2019-02-12T03:08:31.298Z,79.03
2019-02-12T03:10:59.903Z,74.73
2019-02-12T03:13:28.192Z,77.77
2019-02-12T03:15:56.470Z,81.93
2019-02-12T03:18:25.044Z,74.03
2019-02-12T03:20:53.733Z,74.40
2019-02-12T03:23:22.339Z,75.00
2019-02-12T03:25:50.733Z,76.33
2019-02-12T03:28:19.371Z,72.70
2019-02-12T03:30:47.661Z,73.73
2019-02-12T03:33:16.054Z,71.93
2019-02-12T03:35:44.407Z,65.63
2019-02-12T03:38:13.003Z,66.30
2019-02-12T03:40:41.537Z,69.03
2019-02-12T03:43:09.905Z,68.77
2019-02-12T03:45:57.614Z,65.77
2019-02-12T03:48:25.921Z,66.13
2019-02-12T03:50:54.206Z,65.13
2019-02-12T03:53:22.542Z,70.47
2019-02-12T03:55:50.827Z,63.37
2019-02-12T03:58:19.114Z,59.33
2019-02-12T04:00:47.420Z,60.97
2019-02-12T04:03:15.743Z,67.50
2019-02-12T04:05:44.341Z,62.50
2019-02-12T04:08:12.623Z,63.60
2019-02-12T04:10:41.287Z,59.33
2019-02-12T04:13:09.878Z,59.67
2019-02-12T04:15:38.266Z,57.93
2019-02-12T04:18:06.941Z,57.03
2019-02-12T04:20:35.235Z,58.13
2019-02-12T04:23:03.525Z,53.60
2019-02-12T04:25:32.071Z,54.80
2019-02-12T04:28:00.374Z,53.33
2019-02-12T04:30:28.658Z,54.77
2019-02-12T04:32:57.317Z,51.57
2019-02-12T04:35:25.615Z,52.47
2019-02-12T04:37:54.174Z,53.13
2019-02-12T04:40:22.464Z,51.03
2019-02-12T04:42:52.387Z,51.00
2019-02-12T04:45:20.694Z,48.40
2019-02-12T04:47:49.002Z,48.27
2019-02-12T04:50:17.604Z,51.73
2019-02-12T04:52:48.957Z,49.00
2019-02-12T04:55:17.316Z,52.53
2019-02-12T04:57:45.608Z,46.80
2019-02-12T05:00:16.806Z,46.40
2019-02-12T05:02:45.106Z,46.97
2019-02-12T05:05:13.395Z,44.33
2019-02-12T05:07:41.702Z,45.87
2019-02-12T05:10:22.246Z,45.70
2019-02-12T05:12:50.585Z,48.17
2019-02-12T05:15:18.889Z,45.60
2019-02-12T05:17:47.170Z,45.87
2019-02-12T05:20:15.475Z,41.93
2019-02-12T05:22:44.124Z,42.40
2019-02-12T05:25:13.348Z,42.77
2019-02-12T05:27:41.636Z,44.27
2019-02-12T05:30:14.068Z,41.00
2019-02-12T05:32:42.695Z,42.07
2019-02-12T05:35:11.375Z,39.23
2019-02-12T05:37:39.984Z,40.40
2019-02-12T05:40:11.374Z,41.40
2019-02-12T05:42:39.980Z,35.80
2019-02-12T05:45:12.846Z,35.37
2019-02-12T05:47:41.269Z,39.33
2019-02-12T05:50:14.543Z,44.30
2019-02-12T05:52:42.831Z,65.20
2019-02-12T05:55:11.231Z,63.30
2019-02-12T05:57:39.981Z,54.80
2019-02-12T06:00:18.087Z,53.13
2019-02-12T06:02:46.470Z,58.77
2019-02-12T06:05:28.631Z,53.33
2019-02-12T06:07:57.374Z,51.60
2019-02-12T06:10:26.039Z,49.33
2019-02-12T06:12:54.354Z,56.63
2019-02-12T06:15:22.795Z,50.63
2019-02-12T06:17:51.391Z,52.30
2019-02-12T06:20:19.694Z,49.50
2019-02-12T06:22:48.348Z,52.30
2019-02-12T06:25:16.659Z,48.13
2019-02-12T06:27:45.310Z,51.20
2019-02-12T06:30:13.633Z,47.00
2019-02-12T06:32:42.003Z,46.47
2019-02-12T06:35:10.381Z,48.80
2019-02-12T06:37:40.802Z,45.53
2019-02-12T06:40:10.473Z,49.70
2019-02-12T06:42:38.828Z,48.67
2019-02-12T06:45:11.425Z,46.17
2019-02-12T06:47:39.809Z,49.90
2019-02-12T06:50:14.967Z,57.77
2019-02-12T06:52:43.256Z,89.33
2019-02-12T06:55:11.726Z,76.73
2019-02-12T06:57:40.199Z,78.20
2019-02-12T07:00:14.035Z,70.57
2019-02-12T07:03:05.528Z,73.07
2019-02-12T07:05:34.111Z,70.00
2019-02-12T07:08:36.184Z,66.50
2019-02-12T07:11:16.734Z,63.33
2019-02-12T07:13:48.330Z,74.97
2019-02-12T07:16:35.221Z,82.60
2019-02-12T07:19:18.670Z,78.60
2019-02-12T07:21:53.467Z,78.40
2019-02-12T07:24:36.698Z,76.70
2019-02-12T07:27:25.039Z,77.87
2019-02-12T07:30:23.889Z,73.73
2019-02-12T07:33:13.590Z,75.97
2019-02-12T07:35:48.442Z,68.57
2019-02-12T07:38:32.387Z,72.43
2019-02-12T07:41:19.968Z,68.67
2019-02-12T07:44:07.955Z,68.87
2019-02-12T07:46:48.414Z,66.13
2019-02-12T07:49:38.387Z,67.87
2019-02-12T07:52:28.092Z,65.73
2019-02-12T07:55:02.234Z,98.90
2019-02-12T07:57:55.077Z,126.87
2019-02-12T08:00:26.694Z,191.33
2019-02-12T08:03:12.845Z,227.20
2019-02-12T08:05:55.924Z,213.27
2019-02-12T08:08:33.354Z,170.37
2019-02-12T08:11:07.481Z,177.07
2019-02-12T08:13:44.949Z,221.53
2019-02-12T08:16:43.050Z,224.57
2019-02-12T08:19:23.408Z,219.47
2019-02-12T08:22:14.321Z,205.20
2019-02-12T08:25:04.050Z,188.03
2019-02-12T08:27:52.338Z,169.37
2019-02-12T08:30:36.065Z,370.03
2019-02-12T08:33:10.496Z,230.37
2019-02-12T08:36:00.538Z,220.70
2019-02-12T08:38:38.085Z,211.30
2019-02-12T08:41:32.790Z,220.87
2019-02-12T08:44:13.251Z,225.50
2019-02-12T08:46:56.454Z,227.97
2019-02-12T08:49:33.963Z,224.77
2019-02-12T08:52:17.860Z,213.00
2019-02-12T08:55:10.404Z,203.00
2019-02-12T08:57:47.910Z,202.83
2019-02-12T09:00:22.582Z,192.97
2019-02-12T09:03:06.043Z,196.87
2019-02-12T09:05:46.559Z,190.67
2019-02-12T09:08:26.937Z,183.40
2019-02-12T09:10:58.505Z,197.83
2019-02-12T09:13:41.604Z,205.70
2019-02-12T09:16:17.832Z,202.50
2019-02-12T09:19:05.755Z,207.00
2019-02-12T09:21:58.039Z,200.13
2019-02-12T09:24:59.964Z,189.47
2019-02-12T09:27:43.486Z,175.70
2019-02-12T09:30:31.335Z,182.10
2019-02-12T09:33:22.126Z,185.20
2019-02-12T09:36:05.657Z,169.90
2019-02-12T09:38:49.355Z,181.93
2019-02-12T09:41:23.722Z,165.30
2019-02-12T09:44:01.057Z,167.60
2019-02-12T09:46:53.674Z,169.93
2019-02-12T09:49:53.662Z,194.97
2019-02-12T09:52:55.545Z,274.20
2019-02-12T09:55:35.814Z,226.53
2019-02-12T09:58:24.831Z,213.67
2019-02-12T10:00:58.840Z,210.43
2019-02-12T10:03:39.346Z,208.47
2019-02-12T10:06:27.439Z,192.87
2019-02-12T10:09:23.321Z,209.87
2019-02-12T10:12:09.692Z,194.67
2019-02-12T10:14:55.729Z,188.13
2019-02-12T10:17:42.725Z,202.47
2019-02-12T10:20:30.815Z,210.63
2019-02-12T10:23:17.624Z,234.87
2019-02-12T10:25:47.954Z,232.73
2019-02-12T10:28:34.232Z,227.50
2019-02-12T10:31:08.357Z,220.10
2019-02-12T10:33:37.000Z,246.60
2019-02-12T10:36:05.289Z,216.73
2019-02-12T10:38:33.712Z,214.23
2019-02-12T10:41:01.999Z,207.53
2019-02-12T10:43:30.302Z,215.03
2019-02-12T10:45:58.630Z,207.40
2019-02-12T10:48:26.940Z,207.63
2019-02-12T10:50:55.287Z,200.80
2019-02-12T10:53:23.651Z,201.40
2019-02-12T10:55:51.944Z,197.97
2019-02-12T10:58:20.303Z,202.60
2019-02-12T11:00:49.090Z,215.27
2019-02-12T11:03:17.395Z,209.60
2019-02-12T11:05:45.710Z,202.30
2019-02-12T11:08:16.647Z,210.30
2019-02-12T11:10:45.221Z,202.40
2019-02-12T11:13:13.923Z,194.33
2019-02-12T11:15:42.216Z,195.17
2019-02-12T11:18:10.533Z,187.57
2019-02-12T11:20:38.895Z,181.30
2019-02-12T11:23:07.187Z,200.67
2019-02-12T11:25:35.512Z,210.70
2019-02-12T11:28:03.803Z,207.40
2019-02-12T11:30:32.122Z,211.40
2019-02-12T11:33:00.405Z,201.57
2019-02-12T11:35:28.754Z,206.33
2019-02-12T11:37:57.059Z,205.70
2019-02-12T11:40:25.683Z,216.27
2019-02-12T11:42:53.981Z,191.97
2019-02-12T11:45:22.286Z,183.50
2019-02-12T11:47:50.933Z,176.67
2019-02-12T11:50:22.030Z,182.07
2019-02-12T11:52:50.328Z,170.33
2019-02-12T11:55:18.925Z,190.50
2019-02-12T11:57:47.235Z,189.00
2019-02-12T12:00:21.330Z,200.50
2019-02-12T12:02:49.622Z,199.00
2019-02-12T12:05:18.187Z,197.37
2019-02-12T12:07:46.520Z,187.30
2019-02-12T12:10:15.144Z,178.33
2019-02-12T12:12:43.701Z,184.83
2019-02-12T12:15:14.046Z,192.87
2019-02-12T12:17:42.368Z,183.07
2019-02-12T12:20:16.525Z,173.20
2019-02-12T12:22:44.835Z,184.57
2019-02-12T12:25:13.542Z,184.67
2019-02-12T12:27:42.190Z,192.93
2019-02-12T12:30:13.541Z,190.33
2019-02-12T12:32:42.132Z,192.57
2019-02-12T12:35:11.530Z,187.20
2019-02-12T12:37:41.033Z,194.53
2019-02-12T12:40:11.634Z,193.77
2019-02-12T12:42:40.275Z,201.63
2019-02-12T12:45:11.250Z,195.07
2019-02-12T12:47:39.885Z,185.53
2019-02-12T12:50:12.495Z,200.20
2019-02-12T12:52:40.813Z,183.93
2019-02-12T12:55:09.884Z,176.23
2019-02-12T12:57:41.865Z,167.50
2019-02-12T13:00:13.956Z,172.97
2019-02-12T13:02:42.542Z,182.73
2019-02-12T13:05:11.182Z,189.10
2019-02-12T13:07:40.009Z,184.60
2019-02-12T13:10:11.977Z,184.60
2019-02-12T13:12:40.588Z,177.77
2019-02-12T13:15:11.147Z,176.97
2019-02-12T13:17:39.690Z,166.07
2019-02-12T13:20:13.171Z,162.30
2019-02-12T13:22:41.482Z,160.57
2019-02-12T13:25:10.516Z,165.83
2019-02-12T13:27:39.122Z,160.70
2019-02-12T13:30:10.862Z,163.60
2019-02-12T13:32:39.169Z,213.67
2019-02-12T13:35:08.723Z,236.70
2019-02-12T13:37:37.446Z,212.60
2019-02-12T13:40:12.388Z,214.90
2019-02-12T13:42:40.974Z,217.13
2019-02-12T13:45:12.563Z,214.70
2019-02-12T13:47:44.290Z,209.87
2019-02-12T13:50:13.586Z,205.93
2019-02-12T13:52:42.272Z,211.83
2019-02-12T13:55:17.246Z,202.60
2019-02-12T13:57:45.834Z,202.20
2019-02-12T14:00:17.905Z,198.50
2019-02-12T14:02:47.725Z,191.87
2019-02-12T14:05:26.794Z,195.43
2019-02-12T14:07:55.523Z,187.53
2019-02-12T14:10:25.762Z,191.63
2019-02-12T14:12:54.397Z,179.23
2019-02-12T14:15:22.974Z,183.40
2019-02-12T14:17:51.265Z,180.53
2019-02-12T14:20:21.971Z,233.90
2019-02-12T14:22:50.266Z,239.83
2019-02-12T14:25:25.734Z,205.80
2019-02-12T14:27:51.952Z,190.90
2019-02-12T14:30:21.463Z,184.83
2019-02-12T14:32:49.747Z,215.33
2019-02-12T14:35:18.139Z,216.60
2019-02-12T14:37:46.435Z,202.00
2019-02-12T14:40:16.203Z,203.33
2019-02-12T14:42:44.876Z,197.87
2019-02-12T14:45:19.696Z,190.33
2019-02-12T14:47:50.784Z,187.80
2019-02-12T14:50:21.375Z,187.23
2019-02-12T14:52:52.046Z,184.00
2019-02-12T14:55:20.583Z,211.00
2019-02-12T14:57:51.603Z,204.67
2019-02-12T15:00:22.111Z,186.20
2019-02-12T15:02:50.437Z,192.70
2019-02-12T15:05:18.866Z,182.43
2019-02-12T15:07:47.507Z,183.07
2019-02-12T15:10:16.071Z,179.03
2019-02-12T15:12:44.676Z,219.10
2019-02-12T15:15:13.125Z,191.53
2019-02-12T15:17:41.730Z,205.13
2019-02-12T15:20:11.256Z,201.70
2019-02-12T15:22:39.574Z,201.30
2019-02-12T15:25:12.010Z,197.77
2019-02-12T15:27:40.678Z,246.60
2019-02-12T15:30:18.815Z,233.13
2019-02-12T15:32:47.485Z,248.33
2019-02-12T15:35:16.273Z,234.53
2019-02-12T15:37:44.846Z,220.03
2019-02-12T15:40:15.208Z,217.33
2019-02-12T15:42:43.855Z,213.37
2019-02-12T15:45:15.828Z,214.00
2019-02-12T15:47:45.758Z,207.43
2019-02-12T15:50:14.072Z,203.13
2019-02-12T15:52:42.452Z,199.03
2019-02-12T15:55:12.923Z,191.30
2019-02-12T15:57:45.155Z,197.37
2019-02-12T16:00:20.728Z,188.73
2019-02-12T16:02:49.472Z,183.70
2019-02-12T16:05:18.276Z,172.97
2019-02-12T16:07:47.349Z,173.40
2019-02-12T16:10:19.649Z,198.60
2019-02-12T16:12:48.830Z,191.57
2019-02-12T16:15:21.312Z,194.47
2019-02-12T16:17:49.200Z,182.47
2019-02-12T16:20:17.486Z,177.50
2019-02-12T16:22:46.308Z,167.40
2019-02-12T16:25:15.483Z,164.53
2019-02-12T16:27:44.302Z,162.43
2019-02-12T16:30:18.316Z,156.03
2019-02-12T16:32:46.680Z,155.60
2019-02-12T16:35:16.240Z,147.90
2019-02-12T16:37:45.095Z,145.57
2019-02-12T16:40:17.507Z,151.10
2019-02-12T16:42:46.347Z,145.63
2019-02-12T16:45:26.823Z,145.90
2019-02-12T16:47:55.388Z,136.57
2019-02-12T16:50:24.083Z,134.17
2019-02-12T16:52:52.676Z,137.50
2019-02-12T16:55:21.056Z,133.23
2019-02-12T16:57:49.619Z,127.60
2019-02-12T17:00:18.288Z,119.53
2019-02-12T17:02:46.815Z,118.70
2019-02-12T17:05:15.885Z,166.97
2019-02-12T17:07:45.595Z,290.27
2019-02-12T17:10:15.150Z,338.37
2019-02-12T17:12:43.788Z,345.80
2019-02-12T17:15:13.241Z,350.07
2019-02-12T17:17:41.611Z,344.47
2019-02-12T17:20:15.460Z,482.03
2019-02-12T17:22:43.750Z,533.50
2019-02-12T17:25:12.339Z,510.97
2019-02-12T17:27:40.933Z,524.30
2019-02-12T17:30:12.015Z,519.00
2019-02-12T17:32:40.558Z,517.60
2019-02-12T17:35:09.847Z,517.50
2019-02-12T17:37:38.150Z,517.90
2019-02-12T17:40:09.549Z,506.13
2019-02-12T17:42:38.162Z,508.33
2019-02-12T17:45:12.437Z,492.60
2019-02-12T17:47:40.743Z,479.00
2019-02-12T17:50:11.535Z,480.17
2019-02-12T17:52:40.538Z,485.13
2019-02-12T17:55:09.923Z,489.20
2019-02-12T17:57:38.576Z,490.50
2019-02-12T18:00:20.183Z,496.93
2019-02-12T18:02:48.528Z,482.80
2019-02-12T18:05:18.505Z,476.53
2019-02-12T18:07:47.154Z,482.73
2019-02-12T18:10:15.837Z,490.60
2019-02-12T18:12:44.130Z,480.27
2019-02-12T18:15:14.474Z,459.17
2019-02-12T18:17:43.114Z,438.73
2019-02-12T18:20:16.676Z,476.83
2019-02-12T18:22:45.248Z,450.40
2019-02-12T18:25:13.894Z,452.03
2019-02-12T18:27:42.264Z,461.37
2019-02-12T18:30:18.628Z,454.57
2019-02-12T18:32:47.136Z,467.33
2019-02-12T18:35:15.798Z,452.87
2019-02-12T18:37:44.122Z,455.00
2019-02-12T18:40:14.295Z,433.33
2019-02-12T18:42:42.605Z,422.50
2019-02-12T18:45:13.135Z,428.80
2019-02-12T18:47:41.792Z,432.53
2019-02-12T18:50:11.499Z,428.03
2019-02-12T18:52:41.469Z,420.93
2019-02-12T18:55:12.243Z,406.77
2019-02-12T18:57:40.844Z,405.80
2019-02-12T19:00:19.901Z,397.00
2019-02-12T19:02:48.213Z,391.53
2019-02-12T19:05:16.560Z,387.43
2019-02-12T19:07:44.865Z,387.70
2019-02-12T19:10:17.525Z,382.97
2019-02-12T19:12:46.160Z,379.27
2019-02-12T19:15:16.624Z,382.40
2019-02-12T19:17:47.838Z,367.57
2019-02-12T19:20:16.141Z,395.83
2019-02-12T19:22:44.488Z,433.50
2019-02-12T19:25:12.829Z,401.23
2019-02-12T19:27:41.182Z,404.80
2019-02-12T19:30:12.593Z,377.20
2019-02-12T19:32:41.174Z,356.27
2019-02-12T19:35:10.724Z,351.97
2019-02-12T19:37:39.064Z,354.97
2019-02-12T19:40:10.336Z,335.43
2019-02-12T19:42:38.995Z,325.13
2019-02-12T19:45:10.393Z,303.70
2019-02-12T19:47:39.063Z,308.73
2019-02-12T19:50:09.117Z,331.03
2019-02-12T19:52:37.739Z,328.80
2019-02-12T19:55:08.078Z,313.70
2019-02-12T19:57:36.390Z,303.67
2019-02-12T20:00:11.904Z,285.97
2019-02-12T20:02:40.564Z,282.40
2019-02-12T20:05:11.369Z,274.13
2019-02-12T20:07:39.952Z,265.40
2019-02-12T20:10:12.540Z,275.97
2019-02-12T20:12:41.016Z,263.87
2019-02-12T20:15:20.484Z,256.30
2019-02-12T20:17:48.799Z,243.67
2019-02-12T20:20:17.464Z,246.77
2019-02-12T20:22:45.836Z,233.00
2019-02-12T20:25:14.126Z,223.97
2019-02-12T20:27:42.597Z,213.40
2019-02-12T20:30:19.937Z,223.57
2019-02-12T20:32:48.714Z,203.17
2019-02-12T20:35:24.377Z,200.80
2019-02-12T20:37:52.674Z,194.70
2019-02-12T20:40:20.979Z,187.67
2019-02-12T20:42:49.397Z,189.10
2019-02-12T20:45:19.149Z,176.03
2019-02-12T20:47:47.546Z,169.00
2019-02-12T20:50:20.972Z,174.23
2019-02-12T20:52:49.622Z,175.17
2019-02-12T20:55:17.947Z,180.07
2019-02-12T20:57:46.777Z,207.87
2019-02-12T21:00:17.315Z,206.10
2019-02-12T21:02:45.925Z,192.37
2019-02-12T21:05:16.049Z,185.30
2019-02-12T21:07:45.319Z,173.90
2019-02-12T21:10:16.856Z,168.63
2019-02-12T21:12:45.974Z,164.63
2019-02-12T21:15:21.935Z,162.30
2019-02-12T21:17:50.731Z,150.50
2019-02-12T21:20:19.284Z,155.03
2019-02-12T21:22:47.642Z,150.63
2019-02-12T21:25:16.569Z,202.83
2019-02-12T21:27:45.272Z,212.27
2019-02-12T21:30:19.708Z,185.20
2019-02-12T21:32:48.242Z,174.27
2019-02-12T21:35:16.844Z,177.60
2019-02-12T21:37:45.517Z,175.03
2019-02-12T21:40:22.823Z,205.47
2019-02-12T21:42:51.488Z,198.27
2019-02-12T21:45:20.071Z,164.23
2019-02-12T21:47:48.659Z,160.03
2019-02-12T21:50:17.280Z,158.40
2019-02-12T21:52:45.820Z,149.10
2019-02-12T21:55:18.741Z,145.63
2019-02-12T21:57:47.341Z,139.43
2019-02-12T22:00:18.099Z,152.60
2019-02-12T22:02:46.390Z,153.10
2019-02-12T22:05:16.059Z,149.83
2019-02-12T22:07:44.849Z,142.93
2019-02-12T22:10:28.093Z,160.30
2019-02-12T22:12:56.466Z,151.73
2019-02-12T22:15:25.144Z,142.40
2019-02-12T22:17:53.831Z,142.50
2019-02-12T22:20:23.390Z,131.77
2019-02-12T22:22:52.237Z,125.77
2019-02-12T22:25:20.603Z,121.83
2019-02-12T22:27:49.172Z,112.17
2019-02-12T22:30:20.341Z,118.70
2019-02-12T22:32:48.648Z,115.30
2019-02-12T22:35:17.034Z,112.37
2019-02-12T22:37:45.658Z,115.90
2019-02-12T22:40:15.424Z,108.03
2019-02-12T22:42:43.797Z,112.67
2019-02-12T22:45:16.961Z,105.73
2019-02-12T22:47:45.334Z,101.57
2019-02-12T22:50:14.207Z,102.13
2019-02-12T22:52:42.795Z,107.27
2019-02-12T22:55:11.460Z,119.27
2019-02-12T22:57:48.555Z,131.70
2019-02-12T23:00:27.590Z,167.77
2019-02-12T23:02:55.899Z,132.77
2019-02-12T23:05:24.454Z,121.20
2019-02-12T23:07:52.841Z,118.03
2019-02-12T23:10:21.319Z,136.17
2019-02-12T23:12:49.627Z,153.07
2019-02-12T23:15:20.763Z,136.67
2019-02-12T23:17:49.419Z,137.57
2019-02-12T23:20:18.001Z,135.00
2019-02-12T23:22:46.583Z,128.67
2019-02-12T23:25:15.166Z,123.70
2019-02-12T23:27:43.747Z,127.47
2019-02-12T23:30:12.039Z,120.90
2019-02-12T23:32:40.709Z,109.87
2019-02-12T23:35:09.027Z,115.00
2019-02-12T23:37:37.682Z,109.67
2019-02-12T23:40:07.863Z,117.30
2019-02-12T23:42:36.214Z,116.80
2019-02-12T23:45:06.523Z,110.67
2019-02-12T23:47:35.094Z,109.33
2019-02-12T23:50:04.779Z,99.30
2019-02-12T23:52:33.091Z,97.40
2019-02-12T23:55:01.757Z,104.53
2019-02-12T23:57:30.458Z,100.67
2019-02-12T23:59:58.785Z,113.83
